Time,TemperatureF,DewpointF,PressureIn,WindDirection,WindDirectionDegrees,WindSpeedMPH,WindSpeedGustMPH,Humidity,HourlyPrecipIn,Conditions,Clouds,dailyrainin,SolarRadiationWatts/m^2,SoftwareType,DateUTC
2013-01-27 00:14:00,39.0,27.0,-100.00,SSE,164,15.0,22.0,61,0.00,,,0.00,0.000000,,2013-01-27 07:14:00,
2013-01-27 00:21:00,39.0,27.0,-100.00,SSE,164,15.0,22.0,61,0.00,,,0.00,0.000000,,2013-01-27 07:21:00,
2013-01-27 00:31:00,39.0,27.0,-100.00,SSE,164,15.0,22.0,61,0.00,,,0.00,0.000000,,2013-01-27 07:31:00,
2013-01-27 00:41:00,39.0,27.0,-100.00,SSE,164,15.0,22.0,61,0.00,,,0.00,0.000000,,2013-01-27 07:41:00,
2013-01-27 00:51:00,39.0,26.0,-100.00,SSE,161,19.0,24.0,60,0.00,,,0.00,0.000000,,2013-01-27 07:51:00,
2013-01-27 01:11:00,39.0,26.0,-100.00,SSE,161,19.0,24.0,60,0.00,,,0.00,0.000000,,2013-01-27 08:11:00,
2013-01-27 01:22:00,39.0,26.0,-100.00,SSE,161,19.0,24.0,60,0.00,,,0.00,0.000000,,2013-01-27 08:22:00,
2013-01-27 01:32:00,39.0,26.0,-100.00,SSE,161,19.0,24.0,60,0.00,,,0.00,0.000000,,2013-01-27 08:32:00,
2013-01-27 01:42:00,39.0,26.0,-100.00,SSE,161,19.0,24.0,60,0.00,,,0.00,0.000000,,2013-01-27 08:42:00,
2013-01-27 01:51:00,40.0,27.0,-100.00,SSE,162,14.0,24.0,59,0.00,,,0.00,0.000000,,2013-01-27 08:51:00,
2013-01-27 02:21:00,40.0,27.0,-100.00,SSE,162,14.0,24.0,59,0.00,,,0.00,0.000000,,2013-01-27 09:21:00,
2013-01-27 02:32:00,40.0,27.0,-100.00,SSE,162,14.0,24.0,59,0.00,,,0.00,0.000000,,2013-01-27 09:32:00,
2013-01-27 02:41:00,40.0,27.0,-100.00,SSE,162,14.0,24.0,59,0.00,,,0.00,0.000000,,2013-01-27 09:41:00,
2013-01-27 02:51:00,37.0,25.0,-100.00,South,183,8.0,17.0,62,0.00,,,0.00,0.000000,,2013-01-27 09:51:00,
2013-01-27 03:11:00,37.0,25.0,-100.00,South,183,8.0,17.0,62,0.00,,,0.00,0.000000,,2013-01-27 10:11:00,
2013-01-27 03:21:00,37.0,25.0,-100.00,South,183,8.0,17.0,62,0.00,,,0.00,0.000000,,2013-01-27 10:21:00,
2013-01-27 03:31:00,37.0,25.0,-100.00,South,183,8.0,17.0,62,0.00,,,0.00,0.000000,,2013-01-27 10:31:00,
2013-01-27 03:42:00,37.0,25.0,-100.00,South,183,8.0,17.0,62,0.00,,,0.00,0.000000,,2013-01-27 10:42:00,
2013-01-27 03:51:00,37.0,26.0,-100.00,SSE,153,11.0,13.0,65,0.00,,,0.00,0.000000,,2013-01-27 10:51:00,
2013-01-27 04:21:00,37.0,26.0,-100.00,SSE,153,11.0,13.0,65,0.00,,,0.00,0.000000,,2013-01-27 11:21:00,
2013-01-27 04:32:00,37.0,26.0,-100.00,SSE,153,11.0,13.0,65,0.00,,,0.00,0.000000,,2013-01-27 11:32:00,
2013-01-27 04:42:00,37.0,26.0,-100.00,SSE,153,11.0,13.0,65,0.00,,,0.00,0.000000,,2013-01-27 11:42:00,
2013-01-27 04:51:00,35.0,25.0,-100.00,South,174,8.0,15.0,66,0.00,,,0.00,0.000000,,2013-01-27 11:51:00,
2013-01-27 05:21:00,35.0,25.0,-100.00,South,174,8.0,15.0,66,0.00,,,0.00,0.000000,,2013-01-27 12:21:00,
2013-01-27 05:32:00,35.0,25.0,-100.00,South,174,8.0,15.0,66,0.00,,,0.00,0.000000,,2013-01-27 12:32:00,
2013-01-27 05:42:00,35.0,25.0,-100.00,South,174,8.0,15.0,66,0.00,,,0.00,0.000000,,2013-01-27 12:42:00,
2013-01-27 05:51:00,32.0,26.0,-100.00,NNW,337,11.0,17.0,77,0.00,,,0.00,0.000000,,2013-01-27 12:51:00,
2013-01-27 06:11:00,32.0,26.0,-100.00,NNW,337,11.0,17.0,77,0.00,,,0.00,0.000000,,2013-01-27 13:11:00,
2013-01-27 06:22:00,32.0,26.0,-100.00,NNW,337,11.0,17.0,77,0.00,,,0.00,0.000000,,2013-01-27 13:22:00,
2013-01-27 06:32:00,32.0,26.0,-100.00,NNW,337,11.0,17.0,77,0.00,,,0.00,0.000000,,2013-01-27 13:32:00,
2013-01-27 06:42:00,32.0,26.0,-100.00,NNW,337,11.0,17.0,77,0.00,,,0.00,0.000000,,2013-01-27 13:42:00,
2013-01-27 06:51:00,33.0,24.0,-100.00,NNW,338,15.0,22.0,68,0.00,,,0.00,0.000000,,2013-01-27 13:51:00,
2013-01-27 07:12:00,33.0,24.0,-100.00,NNW,338,15.0,22.0,68,0.00,,,0.00,0.000000,,2013-01-27 14:12:00,
2013-01-27 07:22:00,33.0,24.0,-100.00,NNW,338,15.0,22.0,68,0.00,,,0.00,0.000000,,2013-01-27 14:22:00,
2013-01-27 07:32:00,33.0,24.0,-100.00,NNW,338,15.0,22.0,68,0.00,,,0.00,0.000000,,2013-01-27 14:32:00,
2013-01-27 07:42:00,33.0,24.0,-100.00,NNW,338,15.0,22.0,68,0.00,,,0.00,0.000000,,2013-01-27 14:42:00,
2013-01-27 07:51:00,32.0,24.0,-100.00,NNW,344,13.0,20.0,72,0.00,,,0.00,4.000000,,2013-01-27 14:51:00,
2013-01-27 08:22:00,32.0,24.0,-100.00,NNW,344,13.0,20.0,72,0.00,,,0.00,4.000000,,2013-01-27 15:22:00,
2013-01-27 08:32:00,32.0,24.0,-100.00,NNW,344,13.0,20.0,72,0.00,,,0.00,4.000000,,2013-01-27 15:32:00,
2013-01-27 08:42:00,32.0,24.0,-100.00,NNW,344,13.0,20.0,72,0.00,,,0.00,4.000000,,2013-01-27 15:42:00,
2013-01-27 08:51:00,31.0,26.0,-100.00,NW,326,17.0,24.0,80,0.00,,,0.00,68.000000,,2013-01-27 15:51:00,
2013-01-27 09:12:00,31.0,26.0,-100.00,NW,326,17.0,24.0,80,0.00,,,0.00,68.000000,,2013-01-27 16:12:00,
2013-01-27 09:21:00,31.0,26.0,-100.00,NW,326,17.0,24.0,80,0.00,,,0.00,68.000000,,2013-01-27 16:21:00,
2013-01-27 09:32:00,31.0,26.0,-100.00,NW,326,17.0,24.0,80,0.00,,,0.00,68.000000,,2013-01-27 16:32:00,
2013-01-27 09:42:00,31.0,26.0,-100.00,NW,326,17.0,24.0,80,0.00,,,0.00,68.000000,,2013-01-27 16:42:00,
2013-01-27 09:51:00,32.0,30.0,-100.00,NNW,341,19.0,26.0,94,0.00,,,0.00,71.000000,,2013-01-27 16:51:00,
2013-01-27 10:12:00,32.0,30.0,-100.00,NNW,341,19.0,26.0,94,0.00,,,0.00,71.000000,,2013-01-27 17:12:00,
2013-01-27 10:22:00,32.0,30.0,-100.00,NNW,341,19.0,26.0,94,0.00,,,0.00,71.000000,,2013-01-27 17:22:00,
2013-01-27 10:32:00,32.0,30.0,-100.00,NNW,341,19.0,26.0,94,0.00,,,0.00,71.000000,,2013-01-27 17:32:00,
2013-01-27 10:42:00,32.0,30.0,-100.00,NNW,341,19.0,26.0,94,0.00,,,0.00,71.000000,,2013-01-27 17:42:00,
2013-01-27 10:51:00,33.0,32.0,-100.00,NNW,335,15.0,22.0,96,0.00,,,0.00,93.000000,,2013-01-27 17:51:00,
2013-01-27 11:12:00,33.0,32.0,-100.00,NNW,335,15.0,22.0,96,0.00,,,0.00,93.000000,,2013-01-27 18:12:00,
2013-01-27 11:22:00,33.0,32.0,-100.00,NNW,335,15.0,22.0,96,0.00,,,0.00,93.000000,,2013-01-27 18:22:00,
2013-01-27 11:32:00,33.0,32.0,-100.00,NNW,335,15.0,22.0,96,0.00,,,0.00,93.000000,,2013-01-27 18:32:00,
2013-01-27 11:42:00,33.0,32.0,-100.00,NNW,335,15.0,22.0,96,0.00,,,0.00,93.000000,,2013-01-27 18:42:00,
2013-01-27 11:51:00,33.0,31.0,-100.00,NNW,327,13.0,23.0,93,0.00,,,0.00,112.000000,,2013-01-27 18:51:00,
2013-01-27 12:12:00,33.0,31.0,-100.00,NNW,327,13.0,23.0,93,0.00,,,0.00,112.000000,,2013-01-27 19:12:00,
2013-01-27 12:22:00,33.0,31.0,-100.00,NNW,327,13.0,23.0,93,0.00,,,0.00,112.000000,,2013-01-27 19:22:00,
2013-01-27 12:32:00,33.0,31.0,-100.00,NNW,327,13.0,23.0,93,0.00,,,0.00,112.000000,,2013-01-27 19:32:00,
2013-01-27 12:42:00,33.0,31.0,-100.00,NNW,327,13.0,23.0,93,0.00,,,0.00,112.000000,,2013-01-27 19:42:00,
2013-01-27 12:51:00,33.0,31.0,-100.00,NW,324,12.0,19.0,94,0.00,,,0.00,119.000000,,2013-01-27 19:51:00,
2013-01-27 13:12:00,33.0,31.0,-100.00,NW,324,12.0,19.0,94,0.00,,,0.00,119.000000,,2013-01-27 20:12:00,
2013-01-27 13:22:00,33.0,31.0,-100.00,NW,324,12.0,19.0,94,0.00,,,0.00,119.000000,,2013-01-27 20:22:00,
2013-01-27 13:33:00,33.0,31.0,-100.00,NW,324,12.0,19.0,94,0.00,,,0.00,119.000000,,2013-01-27 20:33:00,
2013-01-27 13:42:00,33.0,31.0,-100.00,NW,324,12.0,19.0,94,0.00,,,0.00,119.000000,,2013-01-27 20:42:00,
2013-01-27 13:51:00,33.0,32.0,-100.00,NNW,328,9.0,19.0,96,0.00,,,-99.99,107.000000,,2013-01-27 20:51:00,
2013-01-27 14:12:00,33.0,32.0,-100.00,NNW,328,9.0,19.0,96,0.00,,,-99.99,107.000000,,2013-01-27 21:12:00,
2013-01-27 14:22:00,33.0,32.0,-100.00,NNW,328,9.0,19.0,96,0.00,,,-99.99,107.000000,,2013-01-27 21:22:00,
2013-01-27 14:33:00,33.0,32.0,-100.00,NNW,328,9.0,19.0,96,0.00,,,-99.99,107.000000,,2013-01-27 21:33:00,
2013-01-27 14:42:00,33.0,32.0,-100.00,NNW,328,9.0,19.0,96,0.00,,,-99.99,107.000000,,2013-01-27 21:42:00,
2013-01-27 14:51:00,33.0,32.0,-100.00,NNW,344,11.0,16.0,95,0.00,,,0.00,87.000000,,2013-01-27 21:51:00,
2013-01-27 15:12:00,33.0,32.0,-100.00,NNW,344,11.0,16.0,95,0.00,,,0.00,87.000000,,2013-01-27 22:12:00,
2013-01-27 15:22:00,33.0,32.0,-100.00,NNW,344,11.0,16.0,95,0.00,,,0.00,87.000000,,2013-01-27 22:22:00,
2013-01-27 15:32:00,33.0,32.0,-100.00,NNW,344,11.0,16.0,95,0.00,,,0.00,87.000000,,2013-01-27 22:32:00,
2013-01-27 15:42:00,33.0,32.0,-100.00,NNW,344,11.0,16.0,95,0.00,,,0.00,87.000000,,2013-01-27 22:42:00,
2013-01-27 15:51:00,33.0,32.0,-100.00,NNW,341,8.0,15.0,97,0.00,,,0.00,49.000000,,2013-01-27 22:51:00,
2013-01-27 16:12:00,33.0,32.0,-100.00,NNW,341,8.0,15.0,97,0.00,,,0.00,49.000000,,2013-01-27 23:12:00,
2013-01-27 16:22:00,33.0,32.0,-100.00,NNW,341,8.0,15.0,97,0.00,,,0.00,49.000000,,2013-01-27 23:22:00,
2013-01-27 16:32:00,33.0,32.0,-100.00,NNW,341,8.0,15.0,97,0.00,,,0.00,49.000000,,2013-01-27 23:32:00,
2013-01-27 16:41:00,33.0,32.0,-100.00,NNW,341,8.0,15.0,97,0.00,,,0.00,49.000000,,2013-01-27 23:41:00,
2013-01-27 16:51:00,32.0,32.0,-100.00,North,351,7.0,12.0,98,0.00,,,0.00,10.000000,,2013-01-27 23:51:00,
2013-01-27 17:11:00,32.0,32.0,-100.00,North,351,7.0,12.0,98,0.00,,,0.00,10.000000,,2013-01-28 00:11:00,
2013-01-27 17:21:00,32.0,32.0,-100.00,North,351,7.0,12.0,98,0.00,,,0.00,10.000000,,2013-01-28 00:21:00,
2013-01-27 17:32:00,32.0,32.0,-100.00,North,351,7.0,12.0,98,0.00,,,0.00,10.000000,,2013-01-28 00:32:00,
2013-01-27 17:42:00,32.0,32.0,-100.00,North,351,7.0,12.0,98,0.00,,,0.00,10.000000,,2013-01-28 00:42:00,
2013-01-27 17:51:00,32.0,31.0,-100.00,North,1,9.0,15.0,95,0.00,,,0.00,0.000000,,2013-01-28 00:51:00,
2013-01-27 18:11:00,32.0,31.0,-100.00,North,1,9.0,15.0,95,0.00,,,0.00,0.000000,,2013-01-28 01:11:00,
2013-01-27 18:22:00,32.0,31.0,-100.00,North,1,9.0,15.0,95,0.00,,,0.00,0.000000,,2013-01-28 01:22:00,
2013-01-27 18:33:00,32.0,31.0,-100.00,North,1,9.0,15.0,95,0.00,,,0.00,0.000000,,2013-01-28 01:33:00,
2013-01-27 18:42:00,32.0,31.0,-100.00,North,1,9.0,15.0,95,0.00,,,0.00,0.000000,,2013-01-28 01:42:00,
2013-01-27 18:51:00,31.0,26.0,-100.00,North,6,7.0,13.0,83,0.00,,,0.00,0.000000,,2013-01-28 01:51:00,
2013-01-27 19:11:00,31.0,26.0,-100.00,North,6,7.0,13.0,83,0.00,,,0.00,0.000000,,2013-01-28 02:11:00,
2013-01-27 19:22:00,31.0,26.0,-100.00,North,6,7.0,13.0,83,0.00,,,0.00,0.000000,,2013-01-28 02:22:00,
2013-01-27 19:32:00,31.0,26.0,-100.00,North,6,7.0,13.0,83,0.00,,,0.00,0.000000,,2013-01-28 02:32:00,
2013-01-27 19:42:00,31.0,26.0,-100.00,North,6,7.0,13.0,83,0.00,,,0.00,0.000000,,2013-01-28 02:42:00,
2013-01-27 19:51:00,31.0,27.0,-100.00,NNE,15,3.0,12.0,86,0.00,,,0.00,0.000000,,2013-01-28 02:51:00,
2013-01-27 20:12:00,31.0,27.0,-100.00,NNE,15,3.0,12.0,86,0.00,,,0.00,0.000000,,2013-01-28 03:12:00,
2013-01-27 20:22:00,31.0,27.0,-100.00,NNE,15,3.0,12.0,86,0.00,,,0.00,0.000000,,2013-01-28 03:22:00,
2013-01-27 20:32:00,31.0,27.0,-100.00,NNE,15,3.0,12.0,86,0.00,,,0.00,0.000000,,2013-01-28 03:32:00,
2013-01-27 20:42:00,31.0,27.0,-100.00,NNE,15,3.0,12.0,86,0.00,,,0.00,0.000000,,2013-01-28 03:42:00,
2013-01-27 20:51:00,30.0,28.0,-100.00,ENE,67,2.0,6.0,93,0.00,,,0.00,0.000000,,2013-01-28 03:51:00,
2013-01-27 21:11:00,30.0,28.0,-100.00,ENE,67,2.0,6.0,93,0.00,,,0.00,0.000000,,2013-01-28 04:11:00,
2013-01-27 21:22:00,30.0,28.0,-100.00,ENE,67,2.0,6.0,93,0.00,,,0.00,0.000000,,2013-01-28 04:22:00,
2013-01-27 21:32:00,30.0,28.0,-100.00,ENE,67,2.0,6.0,93,0.00,,,0.00,0.000000,,2013-01-28 04:32:00,
2013-01-27 21:42:00,30.0,28.0,-100.00,ENE,67,2.0,6.0,93,0.00,,,0.00,0.000000,,2013-01-28 04:42:00,
2013-01-27 21:51:00,29.0,29.0,-100.00,North,358,8.0,12.0,98,0.00,,,0.00,0.000000,,2013-01-28 04:51:00,
2013-01-27 22:11:00,29.0,29.0,-100.00,North,358,8.0,12.0,98,0.00,,,0.00,0.000000,,2013-01-28 05:11:00,
2013-01-27 22:21:00,29.0,29.0,-100.00,North,358,8.0,12.0,98,0.00,,,0.00,0.000000,,2013-01-28 05:21:00,
2013-01-27 22:32:00,29.0,29.0,-100.00,North,358,8.0,12.0,98,0.00,,,0.00,0.000000,,2013-01-28 05:32:00,
2013-01-27 22:41:00,29.0,29.0,-100.00,North,358,8.0,12.0,98,0.00,,,0.00,0.000000,,2013-01-28 05:41:00,
2013-01-27 22:51:00,28.0,27.0,-100.00,NNW,345,5.0,13.0,95,0.00,,,0.00,0.000000,,2013-01-28 05:51:00,
2013-01-27 23:22:00,28.0,27.0,-100.00,NNW,345,5.0,13.0,95,0.00,,,0.00,0.000000,,2013-01-28 06:22:00,
2013-01-27 23:32:00,28.0,27.0,-100.00,NNW,345,5.0,13.0,95,0.00,,,0.00,0.000000,,2013-01-28 06:32:00,
2013-01-27 23:42:00,28.0,27.0,-100.00,NNW,345,5.0,13.0,95,0.00,,,0.00,0.000000,,2013-01-28 06:42:00,
2013-01-27 23:51:00,28.0,27.0,-100.00,North,2,4.0,9.0,97,0.00,,,0.00,0.000000,,2013-01-28 06:51:00,